sensor_id;sensor_type;location;lat;lon;timestamp;pressure;altitude;pressure_sealevel;temperature;humidity
60089;BME280;45961;53.574;55.878;2023-02-23T00:00:00;97218.16;;;-4.93;87.32
60089;BME280;45961;53.574;55.878;2023-02-23T00:01:15;97223.03;;;-5.01;87.40
60089;BME280;45961;53.574;55.878;2023-02-23T00:02:17;97222.94;;;-5.06;87.50
60089;BME280;45961;53.574;55.878;2023-02-23T00:03:18;97217.81;;;-5.09;87.45
60089;BME280;45961;53.574;55.878;2023-02-23T00:04:20;97227.25;;;-5.00;87.60
60089;BME280;45961;53.574;55.878;2023-02-23T00:05:21;97222.94;;;-5.06;87.44
60089;BME280;45961;53.574;55.878;2023-02-23T00:06:24;97221.22;;;-5.07;87.49
60089;BME280;45961;53.574;55.878;2023-02-23T00:07:26;97204.28;;;-5.14;87.45
60089;BME280;45961;53.574;55.878;2023-02-23T00:08:26;97216.91;;;-5.11;87.31
60089;BME280;45961;53.574;55.878;2023-02-23T00:09:28;97209.31;;;-5.14;87.47
60089;BME280;45961;53.574;55.878;2023-02-23T00:10:34;97216.28;;;-5.02;87.43
60089;BME280;45961;53.574;55.878;2023-02-23T00:11:35;97215.50;;;-5.00;87.34
60089;BME280;45961;53.574;55.878;2023-02-23T00:12:38;97214.63;;;-5.02;87.35
60089;BME280;45961;53.574;55.878;2023-02-23T00:13:39;97218.84;;;-5.01;87.40
60089;BME280;45961;53.574;55.878;2023-02-23T00:14:41;97215.19;;;-5.13;87.45
60089;BME280;45961;53.574;55.878;2023-02-23T00:15:43;97215.38;;;-5.06;87.42
60089;BME280;45961;53.574;55.878;2023-02-23T00:16:44;97212.03;;;-5.05;87.44
60089;BME280;45961;53.574;55.878;2023-02-23T00:17:45;97212.91;;;-5.03;87.52
60089;BME280;45961;53.574;55.878;2023-02-23T00:18:53;97225.38;;;-5.10;87.55
60089;BME280;45961;53.574;55.878;2023-02-23T00:19:55;97208.72;;;-5.02;87.48
60089;BME280;45961;53.574;55.878;2023-02-23T00:20:57;97206.25;;;-4.99;87.46
60089;BME280;45961;53.574;55.878;2023-02-23T00:21:58;97202.13;;;-4.96;87.52
60089;BME280;45961;53.574;55.878;2023-02-23T00:22:58;97203.72;;;-4.99;87.22
60089;BME280;45961;53.574;55.878;2023-02-23T00:24:04;97212.22;;;-4.96;87.07
60089;BME280;45961;53.574;55.878;2023-02-23T00:25:07;97201.28;;;-4.96;87.22
60089;BME280;45961;53.574;55.878;2023-02-23T00:26:08;97200.25;;;-5.04;87.11
60089;BME280;45961;53.574;55.878;2023-02-23T00:27:10;97211.28;;;-4.99;87.10
60089;BME280;45961;53.574;55.878;2023-02-23T00:28:17;97211.25;;;-5.02;87.10
60089;BME280;45961;53.574;55.878;2023-02-23T00:29:21;97209.56;;;-5.02;87.19
60089;BME280;45961;53.574;55.878;2023-02-23T00:30:22;97206.06;;;-5.08;87.27
60089;BME280;45961;53.574;55.878;2023-02-23T00:31:24;97207.09;;;-4.99;87.21
60089;BME280;45961;53.574;55.878;2023-02-23T00:32:25;97203.53;;;-5.08;87.15
60089;BME280;45961;53.574;55.878;2023-02-23T00:33:26;97210.09;;;-5.15;87.22
60089;BME280;45961;53.574;55.878;2023-02-23T00:34:30;97206.72;;;-5.17;87.28
60089;BME280;45961;53.574;55.878;2023-02-23T00:35:32;97181.94;;;-5.35;87.33
60089;BME280;45961;53.574;55.878;2023-02-23T00:36:34;97214.31;;;-5.15;87.56
60089;BME280;45961;53.574;55.878;2023-02-23T00:37:35;97213.47;;;-5.16;87.74
60089;BME280;45961;53.574;55.878;2023-02-23T00:38:38;97209.31;;;-5.14;87.61
60089;BME280;45961;53.574;55.878;2023-02-23T00:39:40;97198.47;;;-5.10;87.73
60089;BME280;45961;53.574;55.878;2023-02-23T00:40:41;97201.88;;;-5.08;87.49
60089;BME280;45961;53.574;55.878;2023-02-23T00:41:42;97196.06;;;-5.04;87.59
60089;BME280;45961;53.574;55.878;2023-02-23T00:42:43;97201.97;;;-5.03;87.35
60089;BME280;45961;53.574;55.878;2023-02-23T00:43:45;97200.34;;;-5.01;87.32
60089;BME280;45961;53.574;55.878;2023-02-23T00:44:49;97197.81;;;-5.01;86.95
60089;BME280;45961;53.574;55.878;2023-02-23T00:45:54;97212.03;;;-5.05;86.82
60089;BME280;45961;53.574;55.878;2023-02-23T00:46:55;97198.66;;;-5.01;86.77
60089;BME280;45961;53.574;55.878;2023-02-23T00:47:56;97200.09;;;-5.12;86.46
60089;BME280;45961;53.574;55.878;2023-02-23T00:48:58;97187.38;;;-5.18;86.31
60089;BME280;45961;53.574;55.878;2023-02-23T00:49:59;97209.16;;;-5.20;86.31
60089;BME280;45961;53.574;55.878;2023-02-23T00:51:02;97195.53;;;-5.28;86.29
60089;BME280;45961;53.574;55.878;2023-02-23T00:52:03;97190.50;;;-5.27;86.31
60089;BME280;45961;53.574;55.878;2023-02-23T00:53:05;97202.28;;;-5.27;86.23
60089;BME280;45961;53.574;55.878;2023-02-23T00:54:07;97198.06;;;-5.28;86.17
60089;BME280;45961;53.574;55.878;2023-02-23T00:55:12;97197.22;;;-5.27;86.08
60089;BME280;45961;53.574;55.878;2023-02-23T00:56:15;97202.34;;;-5.24;85.92
60089;BME280;45961;53.574;55.878;2023-02-23T00:57:16;97197.31;;;-5.24;85.98
60089;BME280;45961;53.574;55.878;2023-02-23T00:58:19;97194.69;;;-5.29;85.78
60089;BME280;45961;53.574;55.878;2023-02-23T00:59:21;97187.72;;;-5.39;85.58
60089;BME280;45961;53.574;55.878;2023-02-23T01:00:23;97197.81;;;-5.39;85.64
60089;BME280;45961;53.574;55.878;2023-02-23T01:01:24;97195.25;;;-5.40;85.64
60089;BME280;45961;53.574;55.878;2023-02-23T01:02:27;97190.97;;;-5.44;85.51
60089;BME280;45961;53.574;55.878;2023-02-23T01:03:31;97201.72;;;-5.52;85.64
60089;BME280;45961;53.574;55.878;2023-02-23T01:04:32;97198.22;;;-5.58;85.76
60089;BME280;45961;53.574;55.878;2023-02-23T01:05:34;97196.63;;;-5.55;85.94
60089;BME280;45961;53.574;55.878;2023-02-23T01:06:35;97199.19;;;-5.53;85.88
60089;BME280;45961;53.574;55.878;2023-02-23T01:07:37;97200.09;;;-5.50;85.91
60089;BME280;45961;53.574;55.878;2023-02-23T01:08:44;97196.63;;;-5.55;86.11
60089;BME280;45961;53.574;55.878;2023-02-23T01:09:45;97204.22;;;-5.53;86.06
60089;BME280;45961;53.574;55.878;2023-02-23T01:10:46;97200.75;;;-5.58;85.96
60089;BME280;45961;53.574;55.878;2023-02-23T01:11:53;97202.38;;;-5.59;86.17
60089;BME280;45961;53.574;55.878;2023-02-23T01:12:56;97208.44;;;-5.52;86.16
60089;BME280;45961;53.574;55.878;2023-02-23T01:13:58;97208.53;;;-5.48;85.95
60089;BME280;45961;53.574;55.878;2023-02-23T01:14:59;97204.31;;;-5.49;85.90
60089;BME280;45961;53.574;55.878;2023-02-23T01:16:05;97198.00;;;-5.67;86.04
60089;BME280;45961;53.574;55.878;2023-02-23T01:17:06;97208.97;;;-5.65;85.97
60089;BME280;45961;53.574;55.878;2023-02-23T01:18:08;97213.22;;;-5.63;86.01
60089;BME280;45961;53.574;55.878;2023-02-23T01:19:11;97201.34;;;-5.67;86.04
60089;BME280;45961;53.574;55.878;2023-02-23T01:20:15;97197.31;;;-5.60;85.94
60089;BME280;45961;53.574;55.878;2023-02-23T01:21:22;97199.75;;;-5.65;86.00
60089;BME280;45961;53.574;55.878;2023-02-23T01:22:23;97207.31;;;-5.63;85.96
60089;BME280;45961;53.574;55.878;2023-02-23T01:23:25;97201.44;;;-5.64;86.03
60089;BME280;45961;53.574;55.878;2023-02-23T01:24:26;97210.75;;;-5.60;85.98
60089;BME280;45961;53.574;55.878;2023-02-23T01:25:27;97201.63;;;-5.56;86.00
60089;BME280;45961;53.574;55.878;2023-02-23T01:26:39;97218.56;;;-5.51;85.79
60089;BME280;45961;53.574;55.878;2023-02-23T01:27:42;97206.72;;;-5.53;85.58
60089;BME280;45961;53.574;55.878;2023-02-23T01:29:52;97213.28;;;-5.60;85.22
60089;BME280;45961;53.574;55.878;2023-02-23T01:30:54;97212.53;;;-5.56;85.30
60089;BME280;45961;53.574;55.878;2023-02-23T01:31:55;97211.59;;;-5.61;85.17
60089;BME280;45961;53.574;55.878;2023-02-23T01:32:58;97211.59;;;-5.61;85.03
60089;BME280;45961;53.574;55.878;2023-02-23T01:34:02;97220.94;;;-5.57;85.12
60089;BME280;45961;53.574;55.878;2023-02-23T01:35:06;97210.63;;;-5.66;84.89
60089;BME280;45961;53.574;55.878;2023-02-23T01:36:09;97216.47;;;-5.67;84.98
60089;BME280;45961;53.574;55.878;2023-02-23T01:37:10;97216.59;;;-5.62;85.06
60089;BME280;45961;53.574;55.878;2023-02-23T01:38:11;97210.03;;;-5.56;84.98
60089;BME280;45961;53.574;55.878;2023-02-23T01:39:17;97209.34;;;-5.50;84.84
60089;BME280;45961;53.574;55.878;2023-02-23T01:40:20;97205.97;;;-5.51;84.70
60089;BME280;45961;53.574;55.878;2023-02-23T01:41:31;97216.19;;;-5.43;84.77
60089;BME280;45961;53.574;55.878;2023-02-23T01:42:36;97211.06;;;-5.48;84.54
60089;BME280;45961;53.574;55.878;2023-02-23T01:43:55;97175.47;;;-5.61;84.53
60089;BME280;45961;53.574;55.878;2023-02-23T01:45:24;97210.94;;;-5.54;84.29
60089;BME280;45961;53.574;55.878;2023-02-23T01:46:25;97211.81;;;-5.52;84.26
60089;BME280;45961;53.574;55.878;2023-02-23T01:47:26;97209.16;;;-5.58;84.30
60089;BME280;45961;53.574;55.878;2023-02-23T01:48:36;97211.75;;;-5.55;84.45
60089;BME280;45961;53.574;55.878;2023-02-23T01:49:38;97208.88;;;-5.68;84.58
60089;BME280;45961;53.574;55.878;2023-02-23T01:52:03;97212.25;;;-5.68;84.73
60089;BME280;45961;53.574;55.878;2023-02-23T01:53:04;97208.03;;;-5.69;85.09
60089;BME280;45961;53.574;55.878;2023-02-23T01:54:13;97208.03;;;-5.69;85.31
60089;BME280;45961;53.574;55.878;2023-02-23T01:55:16;97203.63;;;-5.78;85.43
60089;BME280;45961;53.574;55.878;2023-02-23T01:56:28;97203.88;;;-5.67;85.72
60089;BME280;45961;53.574;55.878;2023-02-23T01:57:30;97199.63;;;-5.69;85.67
60089;BME280;45961;53.574;55.878;2023-02-23T01:58:32;97209.91;;;-5.62;85.96
60089;BME280;45961;53.574;55.878;2023-02-23T02:00:38;97212.16;;;-5.73;85.78
60089;BME280;45961;53.574;55.878;2023-02-23T02:01:41;97218.25;;;-5.63;85.79
60089;BME280;45961;53.574;55.878;2023-02-23T02:02:42;97215.44;;;-5.75;85.67
60089;BME280;45961;53.574;55.878;2023-02-23T02:03:51;97183.91;;;-5.96;85.51
60089;BME280;45961;53.574;55.878;2023-02-23T02:04:54;97219.81;;;-5.68;85.27
60089;BME280;45961;53.574;55.878;2023-02-23T02:06:03;97211.22;;;-5.76;85.07
60089;BME280;45961;53.574;55.878;2023-02-23T02:07:04;97212.00;;;-5.79;84.89
60089;BME280;45961;53.574;55.878;2023-02-23T02:08:08;97210.09;;;-5.87;84.70
60089;BME280;45961;53.574;55.878;2023-02-23T02:09:14;97211.75;;;-5.89;84.67
60089;BME280;45961;53.574;55.878;2023-02-23T02:10:19;97217.59;;;-5.90;84.43
60089;BME280;45961;53.574;55.878;2023-02-23T02:11:39;97218.41;;;-5.93;84.13
60089;BME280;45961;53.574;55.878;2023-02-23T02:12:45;97213.53;;;-5.85;84.10
60089;BME280;45961;53.574;55.878;2023-02-23T02:14:04;97216.69;;;-5.94;83.81
60089;BME280;45961;53.574;55.878;2023-02-23T02:15:13;97218.19;;;-6.02;83.61
60089;BME280;45961;53.574;55.878;2023-02-23T02:30:16;97207.53;;;-6.24;82.53
60089;BME280;45961;53.574;55.878;2023-02-23T02:35:55;97220.66;;;-6.35;82.56
60089;BME280;45961;53.574;55.878;2023-02-23T02:38:24;97213.91;;;-6.36;83.11
60089;BME280;45961;53.574;55.878;2023-02-23T02:39:54;97219.06;;;-6.32;83.28
60089;BME280;45961;53.574;55.878;2023-02-23T02:41:20;97227.63;;;-6.25;83.28
60089;BME280;45961;53.574;55.878;2023-02-23T02:43:54;97215.28;;;-6.48;83.02
60089;BME280;45961;53.574;55.878;2023-02-23T02:47:16;97225.22;;;-6.52;82.19
60089;BME280;45961;53.574;55.878;2023-02-23T02:52:28;97231.72;;;-6.60;81.52
60089;BME280;45961;53.574;55.878;2023-02-23T02:53:38;97237.34;;;-6.69;81.31
60089;BME280;45961;53.574;55.878;2023-02-23T02:54:50;97244.97;;;-6.66;81.54
60089;BME280;45961;53.574;55.878;2023-02-23T02:55:54;97242.38;;;-6.69;81.37
60089;BME280;45961;53.574;55.878;2023-02-23T02:57:02;97254.06;;;-6.71;81.22
60089;BME280;45961;53.574;55.878;2023-02-23T02:58:06;97250.16;;;-6.90;81.10
60089;BME280;45961;53.574;55.878;2023-02-23T02:59:12;97242.56;;;-6.91;80.84
60089;BME280;45961;53.574;55.878;2023-02-23T03:00:41;97249.00;;;-7.00;80.55
60089;BME280;45961;53.574;55.878;2023-02-23T03:02:02;97272.34;;;-7.04;80.44
60089;BME280;45961;53.574;55.878;2023-02-23T03:03:42;97254.81;;;-7.02;80.06
60089;BME280;45961;53.574;55.878;2023-02-23T03:05:15;97253.78;;;-7.09;80.02
60089;BME280;45961;53.574;55.878;2023-02-23T03:06:42;97256.44;;;-7.04;80.22
60089;BME280;45961;53.574;55.878;2023-02-23T03:11:10;97231.63;;;-6.93;80.74
60089;BME280;45961;53.574;55.878;2023-02-23T03:16:11;97275.34;;;-6.88;81.04
60089;BME280;45961;53.574;55.878;2023-02-23T03:17:45;97272.72;;;-6.91;81.07
60089;BME280;45961;53.574;55.878;2023-02-23T03:19:20;97279.63;;;-6.86;81.29
60089;BME280;45961;53.574;55.878;2023-02-23T03:20:46;97271.72;;;-6.98;81.23
60089;BME280;45961;53.574;55.878;2023-02-23T03:26:01;97276.06;;;-7.20;80.53
60089;BME280;45961;53.574;55.878;2023-02-23T03:27:55;97277.56;;;-7.26;80.21
60089;BME280;45961;53.574;55.878;2023-02-23T03:29:39;97262.94;;;-7.11;80.31
60089;BME280;45961;53.574;55.878;2023-02-23T03:32:34;97277.91;;;-7.41;80.33
60089;BME280;45961;53.574;55.878;2023-02-23T03:34:09;97280.69;;;-7.33;80.62
60089;BME280;45961;53.574;55.878;2023-02-23T03:37:21;97284.00;;;-7.34;81.00
60089;BME280;45961;53.574;55.878;2023-02-23T03:38:55;97293.81;;;-7.42;80.82
60089;BME280;45961;53.574;55.878;2023-02-23T03:40:22;97294.16;;;-7.31;80.92
60089;BME280;45961;53.574;55.878;2023-02-23T03:41:45;97290.00;;;-7.29;80.73
60089;BME280;45961;53.574;55.878;2023-02-23T03:43:14;97275.47;;;-7.39;80.49
60089;BME280;45961;53.574;55.878;2023-02-23T03:44:40;97299.72;;;-7.40;80.58
60089;BME280;45961;53.574;55.878;2023-02-23T03:46:02;97296.31;;;-7.42;80.29
60089;BME280;45961;53.574;55.878;2023-02-23T03:47:26;97296.31;;;-7.42;80.57
60089;BME280;45961;53.574;55.878;2023-02-23T03:48:53;97301.34;;;-7.42;80.67
60089;BME280;45961;53.574;55.878;2023-02-23T03:50:24;97292.41;;;-7.59;80.75
60089;BME280;45961;53.574;55.878;2023-02-23T03:51:47;97303.38;;;-7.56;80.77
60089;BME280;45961;53.574;55.878;2023-02-23T03:53:09;97290.13;;;-7.52;80.84
60089;BME280;45961;53.574;55.878;2023-02-23T03:54:34;97299.19;;;-7.57;80.66
60089;BME280;45961;53.574;55.878;2023-02-23T03:55:55;97296.41;;;-7.64;80.58
60089;BME280;45961;53.574;55.878;2023-02-23T03:57:19;97307.41;;;-7.61;80.55
60089;BME280;45961;53.574;55.878;2023-02-23T03:58:45;97305.06;;;-7.82;80.25
60089;BME280;45961;53.574;55.878;2023-02-23T04:00:11;97304.47;;;-7.75;80.27
60089;BME280;45961;53.574;55.878;2023-02-23T04:01:34;97298.66;;;-7.72;80.24
60089;BME280;45961;53.574;55.878;2023-02-23T04:02:54;97307.31;;;-7.89;79.96
60089;BME280;45961;53.574;55.878;2023-02-23T04:04:15;97300.44;;;-7.95;79.95
60089;BME280;45961;53.574;55.878;2023-02-23T04:05:38;97309.66;;;-7.94;79.85
60089;BME280;45961;53.574;55.878;2023-02-23T04:07:00;97255.81;;;-8.28;79.45
60089;BME280;45961;53.574;55.878;2023-02-23T04:08:25;97300.59;;;-7.90;79.27
60089;BME280;45961;53.574;55.878;2023-02-23T04:09:47;97314.41;;;-8.02;78.97
60089;BME280;45961;53.574;55.878;2023-02-23T04:11:39;97311.69;;;-7.84;79.25
60089;BME280;45961;53.574;55.878;2023-02-23T04:13:11;97316.13;;;-8.01;78.75
60089;BME280;45961;53.574;55.878;2023-02-23T04:14:28;97302.31;;;-7.88;78.60
60089;BME280;45961;53.574;55.878;2023-02-23T04:15:33;97317.22;;;-7.92;78.11
60089;BME280;45961;53.574;55.878;2023-02-23T04:16:36;97322.84;;;-7.76;77.82
60089;BME280;45961;53.574;55.878;2023-02-23T04:17:40;97311.78;;;-7.81;77.82
60089;BME280;45961;53.574;55.878;2023-02-23T04:18:42;97321.41;;;-7.93;77.60
60089;BME280;45961;53.574;55.878;2023-02-23T04:19:51;97311.00;;;-7.80;77.51
60089;BME280;45961;53.574;55.878;2023-02-23T04:20:57;97319.16;;;-7.85;77.15
60089;BME280;45961;53.574;55.878;2023-02-23T04:22:00;97314.88;;;-7.88;77.09
60089;BME280;45961;53.574;55.878;2023-02-23T04:23:01;97314.41;;;-7.78;76.80
60089;BME280;45961;53.574;55.878;2023-02-23T04:24:02;97320.66;;;-7.90;76.76
60089;BME280;45961;53.574;55.878;2023-02-23T04:25:04;97313.72;;;-7.72;76.71
60089;BME280;45961;53.574;55.878;2023-02-23T04:26:08;97312.88;;;-7.73;76.53
60089;BME280;45961;53.574;55.878;2023-02-23T04:27:09;97316.59;;;-7.87;76.36
60089;BME280;45961;53.574;55.878;2023-02-23T04:28:11;97326.78;;;-8.08;76.28
60089;BME280;45961;53.574;55.878;2023-02-23T04:29:12;97316.47;;;-7.91;76.64
60089;BME280;45961;53.574;55.878;2023-02-23T04:30:13;97320.16;;;-8.04;76.63
60089;BME280;45961;53.574;55.878;2023-02-23T04:31:14;97317.03;;;-7.99;76.41
60089;BME280;45961;53.574;55.878;2023-02-23T04:32:17;97300.47;;;-8.17;76.37
60089;BME280;45961;53.574;55.878;2023-02-23T04:33:19;97324.91;;;-7.88;76.46
60089;BME280;45961;53.574;55.878;2023-02-23T04:34:22;97330.59;;;-7.93;76.41
60089;BME280;45961;53.574;55.878;2023-02-23T04:35:23;97322.34;;;-7.65;76.29
60089;BME280;45961;53.574;55.878;2023-02-23T04:36:24;97332.22;;;-7.70;76.10
60089;BME280;45961;53.574;55.878;2023-02-23T04:37:29;97339.34;;;-7.82;76.02
60089;BME280;45961;53.574;55.878;2023-02-23T04:38:30;97336.69;;;-7.87;76.05
60089;BME280;45961;53.574;55.878;2023-02-23T04:39:31;97341.72;;;-7.87;76.24
60089;BME280;45961;53.574;55.878;2023-02-23T04:40:32;97320.72;;;-7.89;76.25
60089;BME280;45961;53.574;55.878;2023-02-23T04:41:33;97329.28;;;-7.58;76.38
60089;BME280;45961;53.574;55.878;2023-02-23T04:42:37;97338.16;;;-7.68;75.72
60089;BME280;45961;53.574;55.878;2023-02-23T04:43:38;97325.09;;;-7.83;75.55
60089;BME280;45961;53.574;55.878;2023-02-23T04:44:39;97328.25;;;-7.89;75.53
60089;BME280;45961;53.574;55.878;2023-02-23T04:45:40;97333.59;;;-8.04;75.57
60089;BME280;45961;53.574;55.878;2023-02-23T04:46:41;97330.13;;;-7.58;75.66
60089;BME280;45961;53.574;55.878;2023-02-23T04:47:42;97327.66;;;-7.56;75.13
60089;BME280;45961;53.574;55.878;2023-02-23T04:48:44;97336.22;;;-7.51;74.96
60089;BME280;45961;53.574;55.878;2023-02-23T04:49:45;97336.03;;;-7.81;74.76
60089;BME280;45961;53.574;55.878;2023-02-23T04:50:46;97335.75;;;-7.65;74.80
60089;BME280;45961;53.574;55.878;2023-02-23T04:51:47;97338.38;;;-7.62;74.61
60089;BME280;45961;53.574;55.878;2023-02-23T04:52:48;97334.44;;;-7.54;74.56
60089;BME280;45961;53.574;55.878;2023-02-23T04:53:52;97333.34;;;-7.62;74.24
60089;BME280;45961;53.574;55.878;2023-02-23T04:54:53;97328.31;;;-7.62;74.23
60089;BME280;45961;53.574;55.878;2023-02-23T04:55:54;97333.03;;;-7.71;74.26
60089;BME280;45961;53.574;55.878;2023-02-23T04:56:55;97333.03;;;-7.71;74.25
60089;BME280;45961;53.574;55.878;2023-02-23T04:57:59;97338.31;;;-7.63;74.31
60089;BME280;45961;53.574;55.878;2023-02-23T04:59:00;97304.63;;;-7.70;74.29
60089;BME280;45961;53.574;55.878;2023-02-23T05:00:02;97349.91;;;-7.67;73.99
60089;BME280;45961;53.574;55.878;2023-02-23T05:01:07;97303.84;;;-8.17;74.01
60089;BME280;45961;53.574;55.878;2023-02-23T05:02:09;97331.50;;;-7.67;74.24
60089;BME280;45961;53.574;55.878;2023-02-23T05:03:10;97339.25;;;-7.85;74.05
60089;BME280;45961;53.574;55.878;2023-02-23T05:04:11;97343.25;;;-7.90;74.14
60089;BME280;45961;53.574;55.878;2023-02-23T05:05:12;97328.22;;;-7.65;73.89
60089;BME280;45961;53.574;55.878;2023-02-23T05:06:17;97334.84;;;-7.67;73.43
60089;BME280;45961;53.574;55.878;2023-02-23T05:07:19;97330.03;;;-7.61;73.32
60089;BME280;45961;53.574;55.878;2023-02-23T05:08:20;97326.34;;;-7.45;73.21
60089;BME280;45961;53.574;55.878;2023-02-23T05:09:21;97332.69;;;-7.56;72.85
60089;BME280;45961;53.574;55.878;2023-02-23T05:10:22;97333.44;;;-7.59;72.81
60089;BME280;45961;53.574;55.878;2023-02-23T05:11:23;97332.59;;;-7.34;72.97
60089;BME280;45961;53.574;55.878;2023-02-23T05:12:26;97330.50;;;-7.47;72.80
60089;BME280;45961;53.574;55.878;2023-02-23T05:13:27;97332.69;;;-7.56;72.74
60089;BME280;45961;53.574;55.878;2023-02-23T05:14:28;97330.13;;;-7.58;72.54
60089;BME280;45961;53.574;55.878;2023-02-23T05:15:29;97334.75;;;-7.70;72.72
60089;BME280;45961;53.574;55.878;2023-02-23T05:16:30;97333.41;;;-7.84;72.42
60089;BME280;45961;53.574;55.878;2023-02-23T05:17:31;97343.19;;;-7.92;72.58
60089;BME280;45961;53.574;55.878;2023-02-23T05:18:34;97332.38;;;-7.91;72.98
60089;BME280;45961;53.574;55.878;2023-02-23T05:19:35;97329.63;;;-7.97;72.92
60089;BME280;45961;53.574;55.878;2023-02-23T05:20:37;97338.28;;;-7.89;73.04
60089;BME280;45961;53.574;55.878;2023-02-23T05:21:38;97335.16;;;-7.83;72.72
60089;BME280;45961;53.574;55.878;2023-02-23T05:22:40;97342.44;;;-7.65;72.73
60089;BME280;45961;53.574;55.878;2023-02-23T05:23:42;97330.47;;;-7.73;72.39
60089;BME280;45961;53.574;55.878;2023-02-23T05:24:43;97329.53;;;-7.51;72.42
60089;BME280;45961;53.574;55.878;2023-02-23T05:25:44;97333.44;;;-7.59;72.32
60089;BME280;45961;53.574;55.878;2023-02-23T05:26:45;97334.44;;;-7.79;72.09
60089;BME280;45961;53.574;55.878;2023-02-23T05:27:46;97329.78;;;-7.43;72.18
60089;BME280;45961;53.574;55.878;2023-02-23T05:28:47;97336.22;;;-7.51;71.89
60089;BME280;45961;53.574;55.878;2023-02-23T05:29:48;97337.19;;;-7.48;71.79
60089;BME280;45961;53.574;55.878;2023-02-23T05:30:49;97346.72;;;-7.87;71.97
60089;BME280;45961;53.574;55.878;2023-02-23T05:31:50;97336.19;;;-7.77;72.12
60089;BME280;45961;53.574;55.878;2023-02-23T05:32:50;97339.50;;;-7.52;72.03
60089;BME280;45961;53.574;55.878;2023-02-23T05:33:51;97338.47;;;-7.59;71.84
60089;BME280;45961;53.574;55.878;2023-02-23T05:34:52;97345.25;;;-7.56;71.62
60089;BME280;45961;53.574;55.878;2023-02-23T05:35:54;97345.63;;;-7.70;71.56
60089;BME280;45961;53.574;55.878;2023-02-23T05:36:55;97347.97;;;-7.76;71.56
60089;BME280;45961;53.574;55.878;2023-02-23T05:37:55;97337.06;;;-7.51;71.59
60089;BME280;45961;53.574;55.878;2023-02-23T05:38:57;97335.34;;;-7.52;71.35
60089;BME280;45961;53.574;55.878;2023-02-23T05:39:58;97331.50;;;-7.42;71.11
60089;BME280;45961;53.574;55.878;2023-02-23T05:40:58;97338.97;;;-7.43;71.21
60089;BME280;45961;53.574;55.878;2023-02-23T05:42:03;97331.44;;;-7.43;71.21
60089;BME280;45961;53.574;55.878;2023-02-23T05:43:07;97328.56;;;-7.54;71.20
60089;BME280;45961;53.574;55.878;2023-02-23T05:44:08;97333.75;;;-7.50;71.16
60089;BME280;45961;53.574;55.878;2023-02-23T05:45:09;97335.81;;;-7.63;71.46
60089;BME280;45961;53.574;55.878;2023-02-23T05:46:14;97324.44;;;-7.52;71.40
60089;BME280;45961;53.574;55.878;2023-02-23T05:47:16;97339.59;;;-7.51;71.42
60089;BME280;45961;53.574;55.878;2023-02-23T05:48:20;97334.31;;;-7.58;71.22
60089;BME280;45961;53.574;55.878;2023-02-23T05:49:21;97334.81;;;-7.43;71.03
60089;BME280;45961;53.574;55.878;2023-02-23T05:50:23;97343.56;;;-7.56;70.97
60089;BME280;45961;53.574;55.878;2023-02-23T05:51:26;97344.53;;;-7.78;71.13
60089;BME280;45961;53.574;55.878;2023-02-23T05:52:27;97348.69;;;-7.78;71.01
60089;BME280;45961;53.574;55.878;2023-02-23T05:53:28;97340.06;;;-7.61;70.98
60089;BME280;45961;53.574;55.878;2023-02-23T05:54:29;97335.75;;;-7.65;71.07
60089;BME280;45961;53.574;55.878;2023-02-23T05:55:30;97333.06;;;-7.44;71.05
60089;BME280;45961;53.574;55.878;2023-02-23T05:56:32;97338.63;;;-7.54;70.92
60089;BME280;45961;53.574;55.878;2023-02-23T05:57:33;97340.78;;;-7.39;70.78
60089;BME280;45961;53.574;55.878;2023-02-23T05:58:34;97330.75;;;-7.39;70.51
60089;BME280;45961;53.574;55.878;2023-02-23T05:59:35;97339.13;;;-7.39;70.42
60089;BME280;45961;53.574;55.878;2023-02-23T06:00:36;97346.59;;;-7.40;70.29
60089;BME280;45961;53.574;55.878;2023-02-23T06:01:37;97334.84;;;-7.67;70.00
60089;BME280;45961;53.574;55.878;2023-02-23T06:02:38;97341.28;;;-7.50;69.84
60089;BME280;45961;53.574;55.878;2023-02-23T06:03:41;97344.34;;;-7.33;69.87
60089;BME280;45961;53.574;55.878;2023-02-23T06:04:42;97343.25;;;-7.15;69.79
60089;BME280;45961;53.574;55.878;2023-02-23T06:05:51;97361.31;;;-7.26;69.89
60089;BME280;45961;53.574;55.878;2023-02-23T06:06:52;97341.25;;;-7.24;69.96
60089;BME280;45961;53.574;55.878;2023-02-23T06:07:53;97351.69;;;-7.39;69.70
60089;BME280;45961;53.574;55.878;2023-02-23T06:08:54;97343.06;;;-7.47;69.84
60089;BME280;45961;53.574;55.878;2023-02-23T06:09:55;97348.63;;;-7.30;70.08
60089;BME280;45961;53.574;55.878;2023-02-23T06:10:56;97354.50;;;-7.30;70.03
60089;BME280;45961;53.574;55.878;2023-02-23T06:11:57;97359.22;;;-7.13;70.11
60089;BME280;45961;53.574;55.878;2023-02-23T06:13:00;97361.88;;;-7.09;69.43
60089;BME280;45961;53.574;55.878;2023-02-23T06:14:01;97357.63;;;-7.11;69.16
60089;BME280;45961;53.574;55.878;2023-02-23T06:15:03;97365.19;;;-7.10;68.81
60089;BME280;45961;53.574;55.878;2023-02-23T06:16:04;97358.00;;;-6.99;68.67
60089;BME280;45961;53.574;55.878;2023-02-23T06:17:06;97355.75;;;-7.17;68.28
60089;BME280;45961;53.574;55.878;2023-02-23T06:18:07;97355.31;;;-7.04;68.20
60089;BME280;45961;53.574;55.878;2023-02-23T06:19:11;97361.50;;;-6.94;68.01
60089;BME280;45961;53.574;55.878;2023-02-23T06:20:12;97347.63;;;-7.08;67.87
60089;BME280;45961;53.574;55.878;2023-02-23T06:21:13;97354.81;;;-6.93;67.61
60089;BME280;45961;53.574;55.878;2023-02-23T06:22:15;97359.09;;;-6.91;67.59
60089;BME280;45961;53.574;55.878;2023-02-23T06:23:19;97347.66;;;-6.80;67.52
60089;BME280;45961;53.574;55.878;2023-02-23T06:24:20;97362.00;;;-6.77;67.30
60089;BME280;45961;53.574;55.878;2023-02-23T06:25:21;97357.94;;;-7.01;67.19
60089;BME280;45961;53.574;55.878;2023-02-23T06:26:22;97360.09;;;-6.84;67.20
60089;BME280;45961;53.574;55.878;2023-02-23T06:27:23;97360.22;;;-6.81;67.11
60089;BME280;45961;53.574;55.878;2023-02-23T06:28:24;97363.41;;;-7.12;66.85
60089;BME280;45961;53.574;55.878;2023-02-23T06:29:25;97343.97;;;-7.18;66.83
60089;BME280;45961;53.574;55.878;2023-02-23T06:30:26;97359.22;;;-7.13;66.89
60089;BME280;45961;53.574;55.878;2023-02-23T06:31:27;97365.16;;;-7.11;67.13